TENO2: Tenkiller Lake

Data processed at Thu Sep 14 2017 22:42


All information presented herein is the property of the government of the United States of America and may be revised or deleted at any time without prior notice.
Dissemination of this information without the expressed written consent of the Public Affairs Office, Tulsa District U.S. Army Corps of Engineers is strictly prohibited.
These data are gathered electronically and, as presented, have not undergone any form of quality control. These data are not guaranteed to be valid or correct.
Go to home page.
Go to station list.

Upstream stations:

Downstream station:
Previous Day
Next Day
Current Day
    
SHEF ID:       TENO2     Tenkiller Lake
STATION TYPE:  Reservoir
Normal Pool:  Bottom =   594.50, Top =   632.00

               PRECIP PRECIP(A) ELEVATION   STORAGE   TW-ELEV    INFLOW   RELEASE  AIR-TEMP  WIND-DIRWIND-SPEED REL-HUMID SOLAR-RAD   VOLTAGE  BAT-LOAD
                   in        in        ft     ac-ft        ft       cfs       cfs         F       deg       mph         %      W/m2      volt      volt
              Ccp-Rev   Ccp-Rev   Ccp-Rev   Ccp-Rev   Ccp-Rev  Regi-Rev  Regi-Rev   Ccp-Rev   Ccp-Rev   Ccp-Rev   Ccp-Rev   Ccp-Rev   Ccp-Rev   Ccp-Rev
(US/Central)
09/12 00:00      0.00      0.00    633.04    682445    483.42        91       300    -24.07    216.20      0.39     10.68      0.00     13.79     13.53
09/12 01:00      0.00      0.00    633.04    682445    483.41        90       300    -23.96    218.20      0.39     10.80      0.00     13.79     13.53
09/12 02:00      0.00      0.00    633.04    682445    483.42        89       300    -23.96    293.00      0.20     10.87      0.00     13.79     13.53
09/12 03:00      0.00      0.00    633.04    682445    483.39        76       300    -23.96    293.50      0.33     10.74      0.00     13.78     13.53
09/12 04:00      0.00      0.00    633.04    682445    483.41        17       300    -24.18    269.40      0.13     10.93      0.00     13.78     13.53
09/12 05:00      0.00      0.00    633.04    682445    483.41         4       300    -23.96    255.80      0.18     10.80      0.00     13.78     13.53
09/12 06:00      0.00      0.00    633.03    682313    483.42        41       300    -24.07    168.50      0.10     10.80      1.00     13.78     13.53
09/12 07:00      0.00      0.00    633.03    682313    483.40        78       300    -24.07    259.10      0.17     10.80      0.00     13.77     13.53
09/12 08:00      0.00      0.00    633.03    682313    483.41       107       300    -23.96    136.60      0.22     10.62     21.00     13.77     13.53
09/12 09:00      0.00      0.00    633.03    682313    483.42       106       300    -23.85    197.10      0.34     10.80    112.00     13.77     13.53
09/12 10:00      0.03      0.03    633.03    682313    483.39       105       300    -23.85    187.50      1.05     10.62    225.00     13.76     13.53
09/12 11:00      0.00      0.00    633.03    682313    483.42        66       300    -23.96    168.20      1.33     10.74    452.00     13.77     13.53
09/12 12:00      0.00      0.00    633.03    682313    483.39        28       300    -24.07    187.60      2.92     10.68    460.00     13.78     13.53
09/12 13:00      0.00      0.00    633.03    682313    483.39         0       300    -23.96    181.10      2.56     10.74    520.00     13.78     13.53
09/12 14:00      0.00      0.00    633.00    681918    484.10         0       300    -24.07    187.20      3.06     10.68    618.00     13.77     13.53
09/12 15:00      0.00      0.00    632.99    681781    487.29         0      3700    -23.96    198.00      1.79     10.74    427.00     13.77     13.53
09/12 16:00      0.00      0.00    632.97    681506    487.34         0      3875    -24.07    216.10      2.61     10.74    262.00     13.77     13.53
09/12 17:00      0.00      0.00    632.93    680957    487.38         0      3875    -24.07    216.50      3.47     10.80    230.00     13.78     13.53
09/12 18:00      0.00      0.00    632.93    680957    486.82         0      3875    -24.07    215.40      3.09     10.68    173.00     13.78     13.53
09/12 19:00      0.00      0.00    632.92    680820    483.59         0       300    -24.18    215.40      1.08     10.74     68.00     13.78     13.53
09/12 20:00      0.00      0.00    632.91    680683    483.46         0       300    -23.96    226.50      0.38     10.99      6.00     13.77     13.53
09/12 21:00      0.00      0.00    632.92    680820    483.42         0       300    -23.96    265.40      0.36     10.87      0.00     13.78     13.53
09/12 22:00      0.00      0.00    632.91    680683    483.42         0       300    -23.85    296.50      0.40     10.87      0.00     13.78     13.53
09/12 23:00      0.00      0.00    632.92    680820    483.41         0       300    -24.07    294.90      0.34     10.80      0.00     13.79     13.53